Pagrindinis puslapis
METAR-TAF:

METAR-TAF

Oro uostai :

Amanas, Jordanija

platuma: 31-59N, ilguma: 035-59E, Aukštis: 767 m

Dabartinis oras

Ataskaita buvo paskelbta 1 valandą ir 7 minutes, ne 11:00 UTC
Vėjas 8 kt iš Vakarų
Temperatūra 28°C
Drėgmė 25%
Slėgis 1016 hPa
Matomumas: 7000 m

METAR: OJAM 041100Z 28008KT 7000 NSC 28/06 Q1016 NOSIG

Laikas: 15:07 (12:07 UTC)

Prognozė

Ataskaita buvo paskelbta 1 valandą ir 58 minutes, ne 10:09 UTC
Prognozė galioja nuo 04 metu 12 UTC su 05 metu 18 UTC
Vėjas 8 kt iš Vakarų/Šiaurės Vakarų
Matomumas: 5000 m
migla
Tikimybė 30%
nuo 04 metu 12 UTC su 14 metu 18 UTC
Mažai debesys ne aukštis 3000 ft, aukštai iškilę kamuoliniai debesys.
Tikimybė 30%
nuo 04 metu 02 UTC su 04 metu 06 UTC
Vėjas 1 kt nuo kintamojo kryptimis
Matomumas: 3000 m

TAF: OJAM 041009Z 0412/0518 29008KT 5000 HZ NSC PROB30 0412/1418 FEW030TCU PROB30 0402/0406 VRB01KT 3000

Orai ataskaitas ir orų prognozės (METAR, TAF).

turimą stotys yra geltonos ir raudonos taškus žemėlapyje.

Perkelti pele per norėdami pamatyti stoties vardą.

Tada spustelėkite, norėdami matyti oro stebėjimo ir prognozės.

Norėdami pakeisti žemėlapį: spustelėkite ant žalios mygtukų su juodo kryžiaus žemyn,; žalią mygtuką su brūkšneliu, jei norite nutolinti; arba žalių rodyklių gretimoms žemėlapius.


METAR-TAF: